PWSweather.com
Personal Weather Stations
Station Observations

OlomoucCZ

Lat: 49.5936202181, Lon: 17.2276005149

Elevation: 752

Station Type: Davis Vantage Pro 2 Activ

http://infopocasi-olomouc.cz

High Low Average
Temperature 44.4°F6.9°C 31.0°F-0.6°C 37.7°F3.2°C
Dew Point 41.4°F5.2°C 30.0°F-1.1°C 35.9°F2.2°C
Winds 18.4 mph 29.6 kmh Calm Calm 6.0 mph S9.7 kmh S
Wind Gusts 29.9 mph48.1 kmh -- 9.0 mph14.5 kmh
Humidity 97% 81% 93%
Pressure 30.40 in1029.5 mb 29.87 in1011.5 mb -
Precipitation 0.06 in1.5 mm - -
Hour Temp Dew Point Humidity Winds Wind Gusts Pressure Precip Precip Rate Daily Precip Total
12:00 AM 31.0°F-0.6°C 30.0°F-1.1°C 96% Calm Calm -- 30.39 in1029.1 mb - 0.00 in0.0 mm 0.00 in0.0 mm
12:30 AM 31.2°F-0.4°C 30.5°F-0.8°C 97% Calm Calm -- 30.40 in1029.5 mb - 0.00 in0.0 mm 0.00 in0.0 mm
01:00 AM 32.4°F0.2°C 31.4°F-0.3°C 96% Calm Calm -- 30.39 in1029.1 mb - 0.00 in0.0 mm 0.00 in0.0 mm
01:30 AM 31.8°F-0.1°C 30.8°F-0.7°C 96% Calm Calm -- 30.39 in1029.1 mb - 0.00 in0.0 mm 0.00 in0.0 mm
02:00 AM 32.6°F0.3°C 31.6°F-0.2°C 96% 2.3 mph ESE3.7 kmh ESE 3.5 mph5.6 kmh 30.38 in1028.8 mb - 0.00 in0.0 mm 0.00 in0.0 mm
02:30 AM 32.8°F0.4°C 31.8°F-0.1°C 96% 2.3 mph ESE3.7 kmh ESE 3.5 mph5.6 kmh 30.37 in1028.4 mb - 0.00 in0.0 mm 0.00 in0.0 mm
03:00 AM 32.3°F0.2°C 31.1°F-0.5°C 95% 4.6 mph SE7.4 kmh SE 6.9 mph11.1 kmh 30.36 in1028.1 mb - 0.00 in0.0 mm 0.00 in0.0 mm
03:30 AM 32.2°F0.1°C 30.9°F-0.6°C 95% 3.5 mph ESE5.6 kmh ESE 5.8 mph9.3 kmh 30.35 in1027.8 mb - 0.00 in0.0 mm 0.00 in0.0 mm
04:00 AM 32.4°F0.2°C 31.1°F-0.5°C 95% 1.2 mph ESE1.9 kmh ESE 2.3 mph3.7 kmh 30.33 in1027.1 mb - 0.00 in0.0 mm 0.00 in0.0 mm
04:30 AM 32.5°F0.3°C 31.2°F-0.4°C 95% 4.6 mph E7.4 kmh E 3.5 mph5.6 kmh 30.31 in1026.4 mb - 0.00 in0.0 mm 0.00 in0.0 mm
05:00 AM 32.8°F0.4°C 31.5°F-0.3°C 95% 1.2 mph E1.9 kmh E 2.3 mph3.7 kmh 30.30 in1026.1 mb - 0.00 in0.0 mm 0.00 in0.0 mm
05:30 AM 33.0°F0.6°C 31.7°F-0.2°C 95% 4.6 mph ESE7.4 kmh ESE 5.8 mph9.3 kmh 30.28 in1025.4 mb - 0.00 in0.0 mm 0.00 in0.0 mm
06:00 AM 33.2°F0.7°C 31.9°F-0.1°C 95% 2.3 mph ESE3.7 kmh ESE 3.5 mph5.6 kmh 30.28 in1025.4 mb - 0.00 in0.0 mm 0.00 in0.0 mm
06:30 AM 33.5°F0.8°C 32.2°F0.1°C 95% 3.5 mph SSE5.6 kmh SSE 6.9 mph11.1 kmh 30.26 in1024.7 mb - 0.00 in0.0 mm 0.00 in0.0 mm
07:00 AM 33.7°F0.9°C 32.4°F0.2°C 95% 3.5 mph ESE5.6 kmh ESE 5.8 mph9.3 kmh 30.25 in1024.4 mb - 0.00 in0.0 mm 0.00 in0.0 mm
07:30 AM 34.0°F1.1°C 32.7°F0.4°C 95% 4.6 mph SE7.4 kmh SE 5.8 mph9.3 kmh 30.24 in1024.0 mb - 0.00 in0.0 mm 0.00 in0.0 mm
08:00 AM 34.3°F1.3°C 33.3°F0.7°C 96% 4.6 mph SE7.4 kmh SE 8.1 mph13.0 kmh 30.23 in1023.7 mb - 0.00 in0.0 mm 0.00 in0.0 mm
08:30 AM 34.4°F1.3°C 33.4°F0.8°C 96% 3.5 mph SSE5.6 kmh SSE 5.8 mph9.3 kmh 30.22 in1023.4 mb - 0.00 in0.0 mm 0.00 in0.0 mm
09:00 AM 34.6°F1.4°C 33.6°F0.9°C 96% 5.8 mph SE9.3 kmh SE 8.1 mph13.0 kmh 30.20 in1022.7 mb - 0.00 in0.0 mm 0.00 in0.0 mm
09:30 AM 35.1°F1.7°C 34.1°F1.2°C 96% 6.9 mph ESE11.1 kmh ESE 9.2 mph14.8 kmh 30.18 in1022.0 mb - 0.00 in0.0 mm 0.00 in0.0 mm
10:00 AM 35.8°F2.1°C 34.8°F1.6°C 96% 3.5 mph SE5.6 kmh SE 5.8 mph9.3 kmh 30.17 in1021.7 mb - 0.00 in0.0 mm 0.00 in0.0 mm
10:30 AM 36.8°F2.7°C 35.8°F2.1°C 96% 8.1 mph SE13.0 kmh SE 11.5 mph18.5 kmh 30.14 in1020.7 mb - 0.00 in0.0 mm 0.00 in0.0 mm
11:00 AM 38.3°F3.5°C 37.0°F2.8°C 95% 9.2 mph SE14.8 kmh SE 13.8 mph22.2 kmh 30.13 in1020.3 mb - 0.00 in0.0 mm 0.00 in0.0 mm
11:30 AM 38.4°F3.6°C 37.4°F3.0°C 96% 11.5 mph S18.5 kmh S 15.0 mph24.1 kmh 30.11 in1019.6 mb - 0.00 in0.0 mm 0.00 in0.0 mm
12:00 PM 39.1°F3.9°C 38.1°F3.4°C 96% 9.2 mph SSE14.8 kmh SSE 13.8 mph22.2 kmh 30.09 in1019.0 mb - 0.00 in0.0 mm 0.00 in0.0 mm
12:30 PM 39.8°F4.3°C 38.8°F3.8°C 96% 8.1 mph SE13.0 kmh SE 10.4 mph16.7 kmh 30.05 in1017.6 mb - 0.00 in0.0 mm 0.00 in0.0 mm
01:00 PM 41.8°F5.4°C 40.5°F4.7°C 95% 8.1 mph SSE13.0 kmh SSE 10.4 mph16.7 kmh 30.04 in1017.3 mb - 0.00 in0.0 mm 0.00 in0.0 mm
01:30 PM 44.1°F6.7°C 41.4°F5.2°C 90% 5.8 mph SW9.3 kmh SW 11.5 mph18.5 kmh 30.03 in1016.9 mb - 0.00 in0.0 mm 0.00 in0.0 mm
02:00 PM 43.2°F6.2°C 40.5°F4.7°C 90% 10.4 mph S16.7 kmh S 17.3 mph27.8 kmh 30.02 in1016.6 mb - 0.00 in0.0 mm 0.00 in0.0 mm
02:30 PM 42.2°F5.7°C 40.3°F4.6°C 93% 8.1 mph SE13.0 kmh SE 11.5 mph18.5 kmh 30.00 in1015.9 mb - 0.00 in0.0 mm 0.00 in0.0 mm
03:00 PM 42.4°F5.8°C 40.8°F4.9°C 94% 5.8 mph S9.3 kmh S 8.1 mph13.0 kmh 29.99 in1015.6 mb - 0.00 in0.0 mm 0.00 in0.0 mm
03:30 PM 42.7°F5.9°C 41.1°F5.1°C 94% 5.8 mph SSE9.3 kmh SSE 9.2 mph14.8 kmh 29.98 in1015.2 mb - 0.00 in0.0 mm 0.00 in0.0 mm
04:00 PM 43.1°F6.2°C 41.2°F5.1°C 93% 3.5 mph S5.6 kmh S 3.5 mph5.6 kmh 29.97 in1014.9 mb - 0.00 in0.0 mm 0.00 in0.0 mm
04:30 PM 43.4°F6.3°C 41.2°F5.1°C 92% 4.6 mph SSE7.4 kmh SSE 6.9 mph11.1 kmh 29.96 in1014.6 mb - 0.00 in0.0 mm 0.00 in0.0 mm
05:00 PM 43.2°F6.2°C 41.0°F5.0°C 92% 2.3 mph SSW3.7 kmh SSW 6.9 mph11.1 kmh 29.96 in1014.6 mb - 0.00 in0.0 mm 0.00 in0.0 mm
05:30 PM 43.4°F6.3°C 41.2°F5.1°C 92% 6.9 mph S11.1 kmh S 10.4 mph16.7 kmh 29.95 in1014.2 mb - 0.00 in0.0 mm 0.00 in0.0 mm
06:00 PM 43.7°F6.5°C 41.2°F5.1°C 91% 8.1 mph SSE13.0 kmh SSE 9.2 mph14.8 kmh 29.94 in1013.9 mb - 0.00 in0.0 mm 0.00 in0.0 mm
06:30 PM 44.4°F6.9°C 41.0°F5.0°C 88% 6.9 mph SW11.1 kmh SW 9.2 mph14.8 kmh 29.93 in1013.5 mb - 0.00 in0.0 mm 0.01 in0.3 mm
07:00 PM 44.1°F6.7°C 40.8°F4.9°C 88% 8.1 mph SW13.0 kmh SW 12.7 mph20.4 kmh 29.92 in1013.2 mb - 0.00 in0.0 mm 0.01 in0.3 mm
07:30 PM 44.3°F6.8°C 40.7°F4.8°C 87% 8.1 mph SW13.0 kmh SW 11.5 mph18.5 kmh 29.91 in1012.9 mb - 0.00 in0.0 mm 0.01 in0.3 mm
08:00 PM 41.1°F5.1°C 38.7°F3.7°C 91% 10.4 mph W16.7 kmh W 13.8 mph22.2 kmh 29.92 in1013.2 mb - 0.04 in1.0 mm 0.05 in1.3 mm
08:30 PM 40.3°F4.6°C 38.2°F3.4°C 92% 13.8 mph W22.2 kmh W 21.9 mph35.2 kmh 29.92 in1013.2 mb - 0.04 in1.0 mm 0.05 in1.3 mm
09:00 PM 39.6°F4.2°C 37.2°F2.9°C 91% 11.5 mph W18.5 kmh W 16.1 mph25.9 kmh 29.92 in1013.2 mb - 0.01 in0.3 mm 0.06 in1.5 mm
09:30 PM 38.9°F3.8°C 36.8°F2.7°C 92% 9.2 mph W14.8 kmh W 12.7 mph20.4 kmh 29.90 in1012.5 mb - 0.00 in0.0 mm 0.06 in1.5 mm
10:00 PM 39.3°F4.1°C 36.3°F2.4°C 89% 6.9 mph WSW11.1 kmh WSW 8.1 mph13.0 kmh 29.88 in1011.9 mb - 0.00 in0.0 mm 0.06 in1.5 mm
10:30 PM 38.9°F3.8°C 36.2°F2.3°C 90% 8.1 mph WSW13.0 kmh WSW 13.8 mph22.2 kmh 29.89 in1012.2 mb - 0.00 in0.0 mm 0.06 in1.5 mm
11:00 PM 39.8°F4.3°C 35.1°F1.7°C 83% 17.3 mph W27.8 kmh W 29.9 mph48.1 kmh 29.87 in1011.5 mb - 0.00 in0.0 mm 0.06 in1.5 mm
11:30 PM 39.5°F4.2°C 34.2°F1.2°C 81% 18.4 mph WNW29.6 kmh WNW 21.9 mph35.2 kmh 29.88 in1011.9 mb - 0.00 in0.0 mm 0.06 in1.5 mm